Boyd, Illinois
Current Conditions -  °F | °C
As of 4:35 AM on Friday 24 Oct 2014 (Local Time) from KENL Reporting Station
Overcast Overcast  
Wind Chill: 52°   Ceiling: 3300
Heat Index: 52°   Visibility: 10mi
Dew Point: 46°   Wind: 0mph
Humidity: 80%   Direction: NA
Pressure: 30.1"   Gusts: NA
Location:  38.4334°N, 88.9732°W
Report Text: KENL 240935Z AUTO 00000KT 10SM OVC033 11/08 A3010 RMK AO2 T01100076
Loading
Personal Weather Stations






























Interactive Weather Map
Tropical Storm Tracking
New forecast layout! Learn more

10-Day Weather Forecast

Advertisements
Track Severe Weather on mobile